sensor_id;sensor_type;location;lat;lon;timestamp;P1;durP1;ratioP1;P2;durP2;ratioP2
15841;SDS011;8021;48.022;11.812;2023-12-04T00:01:14;1.13;;;1.13;;
15841;SDS011;8021;48.022;11.812;2023-12-04T00:03:42;1.10;;;1.10;;
15841;SDS011;8021;48.022;11.812;2023-12-04T00:06:10;1.10;;;1.10;;
15841;SDS011;8021;48.022;11.812;2023-12-04T00:08:38;1.10;;;1.10;;
15841;SDS011;8021;48.022;11.812;2023-12-04T00:11:05;1.17;;;1.17;;
15841;SDS011;8021;48.022;11.812;2023-12-04T00:13:33;1.00;;;1.00;;
15841;SDS011;8021;48.022;11.812;2023-12-04T00:16:02;1.27;;;1.27;;
15841;SDS011;8021;48.022;11.812;2023-12-04T00:18:30;1.23;;;1.23;;
15841;SDS011;8021;48.022;11.812;2023-12-04T00:20:57;1.10;;;1.10;;
15841;SDS011;8021;48.022;11.812;2023-12-04T00:23:25;1.17;;;1.17;;
15841;SDS011;8021;48.022;11.812;2023-12-04T00:25:53;1.00;;;1.00;;
15841;SDS011;8021;48.022;11.812;2023-12-04T00:28:21;1.00;;;1.00;;
15841;SDS011;8021;48.022;11.812;2023-12-04T00:30:49;1.07;;;1.07;;
15841;SDS011;8021;48.022;11.812;2023-12-04T00:33:18;1.10;;;1.10;;
15841;SDS011;8021;48.022;11.812;2023-12-04T00:35:45;1.27;;;1.27;;
15841;SDS011;8021;48.022;11.812;2023-12-04T00:38:13;1.10;;;1.10;;
15841;SDS011;8021;48.022;11.812;2023-12-04T00:40:40;0.90;;;0.90;;
15841;SDS011;8021;48.022;11.812;2023-12-04T00:43:08;1.23;;;1.23;;
15841;SDS011;8021;48.022;11.812;2023-12-04T00:45:35;0.90;;;0.90;;
15841;SDS011;8021;48.022;11.812;2023-12-04T00:48:03;0.90;;;0.90;;
15841;SDS011;8021;48.022;11.812;2023-12-04T00:50:32;1.23;;;1.23;;
15841;SDS011;8021;48.022;11.812;2023-12-04T00:53:00;1.20;;;1.20;;
15841;SDS011;8021;48.022;11.812;2023-12-04T00:55:27;1.20;;;1.20;;
15841;SDS011;8021;48.022;11.812;2023-12-04T00:57:58;1.50;;;1.50;;
15841;SDS011;8021;48.022;11.812;2023-12-04T01:00:26;1.10;;;1.10;;
15841;SDS011;8021;48.022;11.812;2023-12-04T01:02:54;1.43;;;1.43;;
15841;SDS011;8021;48.022;11.812;2023-12-04T01:05:22;1.07;;;1.07;;
15841;SDS011;8021;48.022;11.812;2023-12-04T01:07:50;1.10;;;1.10;;
15841;SDS011;8021;48.022;11.812;2023-12-04T01:10:18;1.10;;;1.10;;
15841;SDS011;8021;48.022;11.812;2023-12-04T01:12:47;1.20;;;1.20;;
15841;SDS011;8021;48.022;11.812;2023-12-04T01:15:15;1.20;;;1.20;;
15841;SDS011;8021;48.022;11.812;2023-12-04T01:17:42;1.10;;;1.10;;
15841;SDS011;8021;48.022;11.812;2023-12-04T01:20:10;1.20;;;1.20;;
15841;SDS011;8021;48.022;11.812;2023-12-04T01:22:37;1.10;;;1.10;;
15841;SDS011;8021;48.022;11.812;2023-12-04T01:25:07;1.00;;;1.00;;
15841;SDS011;8021;48.022;11.812;2023-12-04T01:27:35;1.00;;;1.00;;
15841;SDS011;8021;48.022;11.812;2023-12-04T01:30:04;1.00;;;1.00;;
15841;SDS011;8021;48.022;11.812;2023-12-04T01:32:32;1.20;;;1.20;;
15841;SDS011;8021;48.022;11.812;2023-12-04T01:35:00;1.10;;;1.10;;
15841;SDS011;8021;48.022;11.812;2023-12-04T01:37:27;1.13;;;1.13;;
15841;SDS011;8021;48.022;11.812;2023-12-04T01:39:55;1.30;;;1.30;;
15841;SDS011;8021;48.022;11.812;2023-12-04T01:42:24;1.10;;;1.10;;
15841;SDS011;8021;48.022;11.812;2023-12-04T01:44:51;1.20;;;1.20;;
15841;SDS011;8021;48.022;11.812;2023-12-04T01:47:19;1.10;;;1.10;;
15841;SDS011;8021;48.022;11.812;2023-12-04T01:49:47;1.00;;;1.00;;
15841;SDS011;8021;48.022;11.812;2023-12-04T01:52:15;1.03;;;1.03;;
15841;SDS011;8021;48.022;11.812;2023-12-04T01:54:42;1.43;;;1.43;;
15841;SDS011;8021;48.022;11.812;2023-12-04T01:57:10;1.00;;;1.00;;
15841;SDS011;8021;48.022;11.812;2023-12-04T01:59:39;1.07;;;1.07;;
15841;SDS011;8021;48.022;11.812;2023-12-04T02:02:07;1.13;;;1.13;;
15841;SDS011;8021;48.022;11.812;2023-12-04T02:04:34;1.27;;;1.27;;
15841;SDS011;8021;48.022;11.812;2023-12-04T02:07:02;0.90;;;0.90;;
15841;SDS011;8021;48.022;11.812;2023-12-04T02:09:30;1.00;;;1.00;;
15841;SDS011;8021;48.022;11.812;2023-12-04T02:11:58;0.93;;;0.93;;
15841;SDS011;8021;48.022;11.812;2023-12-04T02:14:26;0.90;;;0.90;;
15841;SDS011;8021;48.022;11.812;2023-12-04T02:16:55;1.20;;;1.20;;
15841;SDS011;8021;48.022;11.812;2023-12-04T02:19:23;1.20;;;1.20;;
15841;SDS011;8021;48.022;11.812;2023-12-04T02:21:54;1.00;;;1.00;;
15841;SDS011;8021;48.022;11.812;2023-12-04T02:24:23;1.00;;;1.00;;
15841;SDS011;8021;48.022;11.812;2023-12-04T02:26:52;1.00;;;1.00;;
15841;SDS011;8021;48.022;11.812;2023-12-04T02:29:21;1.10;;;1.10;;
15841;SDS011;8021;48.022;11.812;2023-12-04T02:31:50;1.20;;;1.20;;
15841;SDS011;8021;48.022;11.812;2023-12-04T02:34:18;0.90;;;0.90;;
15841;SDS011;8021;48.022;11.812;2023-12-04T02:36:47;1.00;;;1.00;;
15841;SDS011;8021;48.022;11.812;2023-12-04T02:39:15;0.93;;;0.93;;
15841;SDS011;8021;48.022;11.812;2023-12-04T02:41:44;0.90;;;0.90;;
15841;SDS011;8021;48.022;11.812;2023-12-04T02:44:12;1.10;;;1.10;;
15841;SDS011;8021;48.022;11.812;2023-12-04T02:46:39;1.13;;;1.13;;
15841;SDS011;8021;48.022;11.812;2023-12-04T02:49:07;1.23;;;1.23;;
15841;SDS011;8021;48.022;11.812;2023-12-04T02:51:34;1.00;;;1.00;;
15841;SDS011;8021;48.022;11.812;2023-12-04T02:54:02;1.17;;;1.17;;
15841;SDS011;8021;48.022;11.812;2023-12-04T02:56:29;1.20;;;1.20;;
15841;SDS011;8021;48.022;11.812;2023-12-04T02:58:59;1.00;;;1.00;;
15841;SDS011;8021;48.022;11.812;2023-12-04T03:01:26;1.00;;;1.00;;
15841;SDS011;8021;48.022;11.812;2023-12-04T03:03:54;1.20;;;1.20;;
15841;SDS011;8021;48.022;11.812;2023-12-04T03:06:22;1.10;;;1.10;;
15841;SDS011;8021;48.022;11.812;2023-12-04T03:08:49;1.20;;;1.20;;
15841;SDS011;8021;48.022;11.812;2023-12-04T03:11:17;1.00;;;1.00;;
15841;SDS011;8021;48.022;11.812;2023-12-04T03:13:44;1.27;;;1.27;;
15841;SDS011;8021;48.022;11.812;2023-12-04T03:16:16;1.30;;;1.30;;
15841;SDS011;8021;48.022;11.812;2023-12-04T03:18:44;1.00;;;1.00;;
15841;SDS011;8021;48.022;11.812;2023-12-04T03:24:05;0.90;;;0.90;;
15841;SDS011;8021;48.022;11.812;2023-12-04T03:26:35;1.20;;;1.20;;
15841;SDS011;8021;48.022;11.812;2023-12-04T03:29:06;1.23;;;1.23;;
15841;SDS011;8021;48.022;11.812;2023-12-04T03:31:35;1.10;;;1.10;;
15841;SDS011;8021;48.022;11.812;2023-12-04T03:34:03;1.10;;;1.10;;
15841;SDS011;8021;48.022;11.812;2023-12-04T03:36:31;1.10;;;1.10;;
15841;SDS011;8021;48.022;11.812;2023-12-04T03:38:58;1.20;;;1.20;;
15841;SDS011;8021;48.022;11.812;2023-12-04T03:41:26;1.00;;;1.00;;
15841;SDS011;8021;48.022;11.812;2023-12-04T03:43:53;1.10;;;1.10;;
15841;SDS011;8021;48.022;11.812;2023-12-04T03:46:21;1.40;;;1.40;;
15841;SDS011;8021;48.022;11.812;2023-12-04T03:48:50;1.00;;;1.00;;
15841;SDS011;8021;48.022;11.812;2023-12-04T03:51:17;1.30;;;1.30;;
15841;SDS011;8021;48.022;11.812;2023-12-04T03:53:45;1.20;;;1.20;;
15841;SDS011;8021;48.022;11.812;2023-12-04T03:56:12;0.93;;;0.93;;
15841;SDS011;8021;48.022;11.812;2023-12-04T03:58:40;1.00;;;1.00;;
15841;SDS011;8021;48.022;11.812;2023-12-04T04:01:07;1.10;;;1.10;;
15841;SDS011;8021;48.022;11.812;2023-12-04T04:03:35;1.30;;;1.30;;
15841;SDS011;8021;48.022;11.812;2023-12-04T04:06:04;1.00;;;1.00;;
15841;SDS011;8021;48.022;11.812;2023-12-04T04:08:33;1.00;;;1.00;;
15841;SDS011;8021;48.022;11.812;2023-12-04T04:11:00;1.00;;;1.00;;
15841;SDS011;8021;48.022;11.812;2023-12-04T04:13:28;1.00;;;1.00;;
15841;SDS011;8021;48.022;11.812;2023-12-04T04:15:55;1.00;;;1.00;;
15841;SDS011;8021;48.022;11.812;2023-12-04T04:18:23;0.97;;;0.97;;
15841;SDS011;8021;48.022;11.812;2023-12-04T04:20:51;1.00;;;1.00;;
15841;SDS011;8021;48.022;11.812;2023-12-04T04:23:19;1.20;;;1.20;;
15841;SDS011;8021;48.022;11.812;2023-12-04T04:25:47;1.00;;;1.00;;
15841;SDS011;8021;48.022;11.812;2023-12-04T04:28:14;1.30;;;1.30;;
15841;SDS011;8021;48.022;11.812;2023-12-04T04:30:42;1.20;;;1.20;;
15841;SDS011;8021;48.022;11.812;2023-12-04T04:33:10;1.17;;;1.17;;
15841;SDS011;8021;48.022;11.812;2023-12-04T04:35:37;1.10;;;1.10;;
15841;SDS011;8021;48.022;11.812;2023-12-04T04:38:05;1.00;;;1.00;;
15841;SDS011;8021;48.022;11.812;2023-12-04T04:40:34;1.00;;;1.00;;
15841;SDS011;8021;48.022;11.812;2023-12-04T04:43:01;1.10;;;1.10;;
15841;SDS011;8021;48.022;11.812;2023-12-04T04:45:31;1.30;;;1.30;;
15841;SDS011;8021;48.022;11.812;2023-12-04T04:47:58;1.13;;;1.13;;
15841;SDS011;8021;48.022;11.812;2023-12-04T04:50:26;1.50;;;1.50;;
15841;SDS011;8021;48.022;11.812;2023-12-04T04:52:53;0.93;;;0.93;;
15841;SDS011;8021;48.022;11.812;2023-12-04T04:55:21;1.10;;;1.10;;
15841;SDS011;8021;48.022;11.812;2023-12-04T04:58:12;1.20;;;1.20;;
15841;SDS011;8021;48.022;11.812;2023-12-04T05:00:39;1.00;;;1.00;;
15841;SDS011;8021;48.022;11.812;2023-12-04T05:03:07;1.07;;;1.07;;
15841;SDS011;8021;48.022;11.812;2023-12-04T05:05:35;1.10;;;1.10;;
15841;SDS011;8021;48.022;11.812;2023-12-04T05:08:02;1.00;;;1.00;;
15841;SDS011;8021;48.022;11.812;2023-12-04T05:10:30;1.00;;;1.00;;
15841;SDS011;8021;48.022;11.812;2023-12-04T05:12:58;1.20;;;1.20;;
15841;SDS011;8021;48.022;11.812;2023-12-04T05:15:52;1.00;;;1.00;;
15841;SDS011;8021;48.022;11.812;2023-12-04T05:18:19;1.07;;;1.07;;
15841;SDS011;8021;48.022;11.812;2023-12-04T05:20:47;1.20;;;1.20;;
15841;SDS011;8021;48.022;11.812;2023-12-04T05:23:14;1.10;;;1.10;;
15841;SDS011;8021;48.022;11.812;2023-12-04T05:25:42;1.10;;;1.10;;
15841;SDS011;8021;48.022;11.812;2023-12-04T05:28:15;1.23;;;1.23;;
15841;SDS011;8021;48.022;11.812;2023-12-04T05:30:43;1.20;;;1.20;;
15841;SDS011;8021;48.022;11.812;2023-12-04T05:33:13;1.10;;;1.10;;
15841;SDS011;8021;48.022;11.812;2023-12-04T05:35:41;1.27;;;1.27;;
15841;SDS011;8021;48.022;11.812;2023-12-04T05:38:08;1.07;;;1.07;;
15841;SDS011;8021;48.022;11.812;2023-12-04T05:40:36;1.27;;;1.27;;
15841;SDS011;8021;48.022;11.812;2023-12-04T05:43:03;1.10;;;1.10;;
15841;SDS011;8021;48.022;11.812;2023-12-04T05:45:31;1.10;;;1.10;;
15841;SDS011;8021;48.022;11.812;2023-12-04T05:47:58;1.20;;;1.20;;
15841;SDS011;8021;48.022;11.812;2023-12-04T05:50:27;1.10;;;1.10;;
15841;SDS011;8021;48.022;11.812;2023-12-04T05:52:55;1.10;;;1.10;;
15841;SDS011;8021;48.022;11.812;2023-12-04T05:55:22;1.00;;;1.00;;
15841;SDS011;8021;48.022;11.812;2023-12-04T05:57:50;1.00;;;1.00;;
15841;SDS011;8021;48.022;11.812;2023-12-04T06:00:18;1.30;;;1.30;;
15841;SDS011;8021;48.022;11.812;2023-12-04T06:02:45;1.00;;;1.00;;
15841;SDS011;8021;48.022;11.812;2023-12-04T06:05:13;1.00;;;1.00;;
15841;SDS011;8021;48.022;11.812;2023-12-04T06:07:42;1.10;;;1.10;;
15841;SDS011;8021;48.022;11.812;2023-12-04T06:10:09;1.10;;;1.10;;
15841;SDS011;8021;48.022;11.812;2023-12-04T06:12:37;1.33;;;1.33;;
15841;SDS011;8021;48.022;11.812;2023-12-04T06:15:05;1.10;;;1.10;;
15841;SDS011;8021;48.022;11.812;2023-12-04T06:17:33;1.03;;;1.03;;
15841;SDS011;8021;48.022;11.812;2023-12-04T06:20:01;1.10;;;1.10;;
15841;SDS011;8021;48.022;11.812;2023-12-04T06:22:28;1.30;;;1.30;;
15841;SDS011;8021;48.022;11.812;2023-12-04T06:24:58;1.20;;;1.20;;
15841;SDS011;8021;48.022;11.812;2023-12-04T06:27:26;1.17;;;1.17;;
15841;SDS011;8021;48.022;11.812;2023-12-04T06:29:54;1.20;;;1.20;;
15841;SDS011;8021;48.022;11.812;2023-12-04T06:32:22;1.17;;;1.17;;
15841;SDS011;8021;48.022;11.812;2023-12-04T06:34:49;1.20;;;1.20;;
15841;SDS011;8021;48.022;11.812;2023-12-04T06:37:17;1.20;;;1.20;;
15841;SDS011;8021;48.022;11.812;2023-12-04T06:39:45;1.30;;;1.30;;
15841;SDS011;8021;48.022;11.812;2023-12-04T06:42:17;1.07;;;1.07;;
15841;SDS011;8021;48.022;11.812;2023-12-04T06:44:45;1.10;;;1.10;;
15841;SDS011;8021;48.022;11.812;2023-12-04T06:47:12;1.27;;;1.27;;
15841;SDS011;8021;48.022;11.812;2023-12-04T06:49:44;1.00;;;1.00;;
15841;SDS011;8021;48.022;11.812;2023-12-04T06:52:12;1.20;;;1.20;;
15841;SDS011;8021;48.022;11.812;2023-12-04T06:54:39;1.10;;;1.10;;
15841;SDS011;8021;48.022;11.812;2023-12-04T06:57:07;1.10;;;1.10;;
15841;SDS011;8021;48.022;11.812;2023-12-04T06:59:36;1.20;;;1.20;;
15841;SDS011;8021;48.022;11.812;2023-12-04T07:02:04;1.07;;;1.07;;
15841;SDS011;8021;48.022;11.812;2023-12-04T07:04:32;1.10;;;1.10;;
15841;SDS011;8021;48.022;11.812;2023-12-04T07:07:00;1.10;;;1.10;;
15841;SDS011;8021;48.022;11.812;2023-12-04T07:09:31;0.90;;;0.90;;
15841;SDS011;8021;48.022;11.812;2023-12-04T07:12:00;1.40;;;1.40;;
15841;SDS011;8021;48.022;11.812;2023-12-04T07:14:28;1.23;;;1.23;;
15841;SDS011;8021;48.022;11.812;2023-12-04T07:16:57;1.30;;;1.30;;
15841;SDS011;8021;48.022;11.812;2023-12-04T07:19:25;1.20;;;1.20;;
15841;SDS011;8021;48.022;11.812;2023-12-04T07:21:53;1.20;;;1.20;;
15841;SDS011;8021;48.022;11.812;2023-12-04T07:24:21;1.20;;;1.20;;
15841;SDS011;8021;48.022;11.812;2023-12-04T07:26:48;1.23;;;1.23;;
15841;SDS011;8021;48.022;11.812;2023-12-04T07:29:16;1.17;;;1.17;;
15841;SDS011;8021;48.022;11.812;2023-12-04T07:31:43;1.30;;;1.30;;
15841;SDS011;8021;48.022;11.812;2023-12-04T07:34:12;1.37;;;1.37;;
15841;SDS011;8021;48.022;11.812;2023-12-04T07:36:40;1.17;;;1.17;;
15841;SDS011;8021;48.022;11.812;2023-12-04T07:39:09;1.20;;;1.20;;
15841;SDS011;8021;48.022;11.812;2023-12-04T07:41:37;1.20;;;1.20;;
15841;SDS011;8021;48.022;11.812;2023-12-04T07:44:05;1.10;;;1.10;;
15841;SDS011;8021;48.022;11.812;2023-12-04T07:46:32;1.10;;;1.10;;
15841;SDS011;8021;48.022;11.812;2023-12-04T07:49:00;1.10;;;1.10;;
15841;SDS011;8021;48.022;11.812;2023-12-04T07:51:29;1.20;;;1.20;;
15841;SDS011;8021;48.022;11.812;2023-12-04T07:53:57;0.90;;;0.90;;
15841;SDS011;8021;48.022;11.812;2023-12-04T07:56:29;1.33;;;1.33;;
15841;SDS011;8021;48.022;11.812;2023-12-04T07:58:57;1.17;;;1.17;;
15841;SDS011;8021;48.022;11.812;2023-12-04T08:01:24;1.20;;;1.20;;
15841;SDS011;8021;48.022;11.812;2023-12-04T08:03:52;1.30;;;1.30;;
15841;SDS011;8021;48.022;11.812;2023-12-04T08:06:19;1.30;;;1.30;;
15841;SDS011;8021;48.022;11.812;2023-12-04T08:08:48;1.00;;;1.00;;
15841;SDS011;8021;48.022;11.812;2023-12-04T08:11:16;1.00;;;1.00;;
15841;SDS011;8021;48.022;11.812;2023-12-04T08:13:44;1.27;;;1.27;;
15841;SDS011;8021;48.022;11.812;2023-12-04T08:16:12;0.90;;;0.90;;
15841;SDS011;8021;48.022;11.812;2023-12-04T08:18:42;1.20;;;1.20;;
15841;SDS011;8021;48.022;11.812;2023-12-04T08:21:10;1.33;;;1.33;;
15841;SDS011;8021;48.022;11.812;2023-12-04T08:23:38;1.10;;;1.10;;
15841;SDS011;8021;48.022;11.812;2023-12-04T08:26:07;1.07;;;1.07;;
15841;SDS011;8021;48.022;11.812;2023-12-04T08:28:38;1.10;;;1.10;;
15841;SDS011;8021;48.022;11.812;2023-12-04T08:31:08;1.30;;;1.30;;
15841;SDS011;8021;48.022;11.812;2023-12-04T08:33:36;1.10;;;1.10;;
15841;SDS011;8021;48.022;11.812;2023-12-04T08:36:04;1.10;;;1.10;;
15841;SDS011;8021;48.022;11.812;2023-12-04T08:38:31;1.00;;;1.00;;
15841;SDS011;8021;48.022;11.812;2023-12-04T08:40:59;1.20;;;1.20;;
15841;SDS011;8021;48.022;11.812;2023-12-04T08:43:28;1.10;;;1.10;;
15841;SDS011;8021;48.022;11.812;2023-12-04T08:45:56;1.10;;;1.10;;
15841;SDS011;8021;48.022;11.812;2023-12-04T08:48:23;1.10;;;1.10;;
15841;SDS011;8021;48.022;11.812;2023-12-04T08:50:51;1.03;;;1.03;;
15841;SDS011;8021;48.022;11.812;2023-12-04T08:53:19;0.90;;;0.90;;
15841;SDS011;8021;48.022;11.812;2023-12-04T08:55:46;0.93;;;0.93;;
15841;SDS011;8021;48.022;11.812;2023-12-04T08:58:14;1.30;;;1.30;;
15841;SDS011;8021;48.022;11.812;2023-12-04T09:00:43;0.90;;;0.90;;
15841;SDS011;8021;48.022;11.812;2023-12-04T09:03:13;0.70;;;0.70;;
15841;SDS011;8021;48.022;11.812;2023-12-04T09:05:51;0.90;;;0.90;;
15841;SDS011;8021;48.022;11.812;2023-12-04T09:08:22;0.93;;;0.93;;
15841;SDS011;8021;48.022;11.812;2023-12-04T09:11:02;0.90;;;0.90;;
15841;SDS011;8021;48.022;11.812;2023-12-04T09:13:48;1.10;;;1.10;;
15841;SDS011;8021;48.022;11.812;2023-12-04T09:16:17;0.90;;;0.90;;
15841;SDS011;8021;48.022;11.812;2023-12-04T09:18:45;0.90;;;0.90;;
15841;SDS011;8021;48.022;11.812;2023-12-04T09:21:12;0.90;;;0.90;;
15841;SDS011;8021;48.022;11.812;2023-12-04T09:23:40;0.93;;;0.93;;
15841;SDS011;8021;48.022;11.812;2023-12-04T09:26:07;0.80;;;0.80;;
15841;SDS011;8021;48.022;11.812;2023-12-04T09:28:35;0.80;;;0.80;;
15841;SDS011;8021;48.022;11.812;2023-12-04T09:31:03;0.80;;;0.80;;
15841;SDS011;8021;48.022;11.812;2023-12-04T09:33:32;0.87;;;0.87;;
15841;SDS011;8021;48.022;11.812;2023-12-04T09:36:00;0.70;;;0.70;;
15841;SDS011;8021;48.022;11.812;2023-12-04T09:38:28;0.90;;;0.90;;
15841;SDS011;8021;48.022;11.812;2023-12-04T09:40:57;0.80;;;0.80;;
15841;SDS011;8021;48.022;11.812;2023-12-04T09:43:26;0.80;;;0.80;;
15841;SDS011;8021;48.022;11.812;2023-12-04T09:45:56;0.97;;;0.97;;
15841;SDS011;8021;48.022;11.812;2023-12-04T09:48:24;0.90;;;0.90;;
15841;SDS011;8021;48.022;11.812;2023-12-04T09:50:54;0.90;;;0.90;;
15841;SDS011;8021;48.022;11.812;2023-12-04T09:53:24;0.90;;;0.90;;
15841;SDS011;8021;48.022;11.812;2023-12-04T09:55:52;0.80;;;0.80;;
15841;SDS011;8021;48.022;11.812;2023-12-04T09:58:20;0.77;;;0.77;;
15841;SDS011;8021;48.022;11.812;2023-12-04T10:00:48;0.80;;;0.80;;
15841;SDS011;8021;48.022;11.812;2023-12-04T10:03:16;1.00;;;1.00;;
15841;SDS011;8021;48.022;11.812;2023-12-04T10:05:44;0.73;;;0.73;;
15841;SDS011;8021;48.022;11.812;2023-12-04T10:08:13;0.90;;;0.90;;
15841;SDS011;8021;48.022;11.812;2023-12-04T10:10:40;0.80;;;0.80;;
15841;SDS011;8021;48.022;11.812;2023-12-04T10:13:08;0.80;;;0.80;;
15841;SDS011;8021;48.022;11.812;2023-12-04T10:15:42;0.60;;;0.60;;
15841;SDS011;8021;48.022;11.812;2023-12-04T10:18:23;0.90;;;0.90;;
15841;SDS011;8021;48.022;11.812;2023-12-04T10:20:52;0.70;;;0.70;;
15841;SDS011;8021;48.022;11.812;2023-12-04T10:23:22;0.63;;;0.63;;
15841;SDS011;8021;48.022;11.812;2023-12-04T10:25:49;0.67;;;0.67;;
15841;SDS011;8021;48.022;11.812;2023-12-04T10:28:18;0.70;;;0.70;;
15841;SDS011;8021;48.022;11.812;2023-12-04T10:30:45;0.80;;;0.80;;
15841;SDS011;8021;48.022;11.812;2023-12-04T10:33:13;0.70;;;0.70;;
15841;SDS011;8021;48.022;11.812;2023-12-04T10:35:41;0.70;;;0.70;;
15841;SDS011;8021;48.022;11.812;2023-12-04T10:38:09;0.70;;;0.70;;
15841;SDS011;8021;48.022;11.812;2023-12-04T10:40:38;0.80;;;0.80;;
15841;SDS011;8021;48.022;11.812;2023-12-04T10:43:09;0.60;;;0.60;;
15841;SDS011;8021;48.022;11.812;2023-12-04T10:45:38;0.70;;;0.70;;
15841;SDS011;8021;48.022;11.812;2023-12-04T10:48:06;0.60;;;0.60;;
15841;SDS011;8021;48.022;11.812;2023-12-04T10:50:34;0.67;;;0.67;;
15841;SDS011;8021;48.022;11.812;2023-12-04T10:53:04;0.60;;;0.60;;
15841;SDS011;8021;48.022;11.812;2023-12-04T10:55:32;0.60;;;0.60;;
15841;SDS011;8021;48.022;11.812;2023-12-04T10:58:01;0.73;;;0.73;;
15841;SDS011;8021;48.022;11.812;2023-12-04T11:00:30;0.63;;;0.63;;
15841;SDS011;8021;48.022;11.812;2023-12-04T11:02:59;0.50;;;0.50;;
15841;SDS011;8021;48.022;11.812;2023-12-04T11:05:30;0.83;;;0.83;;
15841;SDS011;8021;48.022;11.812;2023-12-04T11:08:00;0.60;;;0.60;;
15841;SDS011;8021;48.022;11.812;2023-12-04T11:10:45;0.60;;;0.60;;
15841;SDS011;8021;48.022;11.812;2023-12-04T11:13:15;0.60;;;0.60;;
15841;SDS011;8021;48.022;11.812;2023-12-04T11:15:45;0.50;;;0.50;;
15841;SDS011;8021;48.022;11.812;2023-12-04T11:18:16;0.70;;;0.70;;
15841;SDS011;8021;48.022;11.812;2023-12-04T11:20:46;0.70;;;0.70;;
15841;SDS011;8021;48.022;11.812;2023-12-04T11:23:15;0.60;;;0.60;;
15841;SDS011;8021;48.022;11.812;2023-12-04T11:25:43;0.67;;;0.67;;
15841;SDS011;8021;48.022;11.812;2023-12-04T11:28:11;0.50;;;0.50;;
15841;SDS011;8021;48.022;11.812;2023-12-04T11:30:40;0.57;;;0.57;;
15841;SDS011;8021;48.022;11.812;2023-12-04T11:33:09;0.67;;;0.67;;
15841;SDS011;8021;48.022;11.812;2023-12-04T11:35:37;0.60;;;0.60;;
15841;SDS011;8021;48.022;11.812;2023-12-04T11:38:06;0.80;;;0.80;;
15841;SDS011;8021;48.022;11.812;2023-12-04T11:40:35;0.70;;;0.70;;
15841;SDS011;8021;48.022;11.812;2023-12-04T11:43:05;0.70;;;0.70;;
15841;SDS011;8021;48.022;11.812;2023-12-04T11:45:49;0.70;;;0.70;;
15841;SDS011;8021;48.022;11.812;2023-12-04T11:48:17;0.90;;;0.90;;
15841;SDS011;8021;48.022;11.812;2023-12-04T11:50:49;0.80;;;0.80;;
15841;SDS011;8021;48.022;11.812;2023-12-04T11:53:17;0.93;;;0.93;;
15841;SDS011;8021;48.022;11.812;2023-12-04T11:55:45;0.70;;;0.70;;
15841;SDS011;8021;48.022;11.812;2023-12-04T11:58:13;0.70;;;0.70;;
15841;SDS011;8021;48.022;11.812;2023-12-04T12:00:41;0.80;;;0.80;;
15841;SDS011;8021;48.022;11.812;2023-12-04T12:03:11;0.97;;;0.97;;
15841;SDS011;8021;48.022;11.812;2023-12-04T12:05:49;0.70;;;0.70;;
15841;SDS011;8021;48.022;11.812;2023-12-04T12:08:19;0.77;;;0.77;;
15841;SDS011;8021;48.022;11.812;2023-12-04T12:10:46;0.80;;;0.80;;
15841;SDS011;8021;48.022;11.812;2023-12-04T12:13:14;0.67;;;0.67;;
15841;SDS011;8021;48.022;11.812;2023-12-04T12:15:42;0.80;;;0.80;;
15841;SDS011;8021;48.022;11.812;2023-12-04T12:18:11;0.70;;;0.70;;
15841;SDS011;8021;48.022;11.812;2023-12-04T12:20:39;0.70;;;0.70;;
15841;SDS011;8021;48.022;11.812;2023-12-04T12:23:06;0.90;;;0.90;;
15841;SDS011;8021;48.022;11.812;2023-12-04T12:25:34;0.60;;;0.60;;
15841;SDS011;8021;48.022;11.812;2023-12-04T12:28:02;0.90;;;0.90;;
15841;SDS011;8021;48.022;11.812;2023-12-04T12:30:30;0.73;;;0.73;;
15841;SDS011;8021;48.022;11.812;2023-12-04T12:32:57;0.70;;;0.70;;
15841;SDS011;8021;48.022;11.812;2023-12-04T12:35:27;0.60;;;0.60;;
15841;SDS011;8021;48.022;11.812;2023-12-04T12:37:55;0.70;;;0.70;;
15841;SDS011;8021;48.022;11.812;2023-12-04T12:40:23;0.60;;;0.60;;
15841;SDS011;8021;48.022;11.812;2023-12-04T12:42:50;0.70;;;0.70;;
15841;SDS011;8021;48.022;11.812;2023-12-04T12:45:18;0.70;;;0.70;;
15841;SDS011;8021;48.022;11.812;2023-12-04T12:47:47;0.70;;;0.70;;
15841;SDS011;8021;48.022;11.812;2023-12-04T12:50:15;0.63;;;0.63;;
15841;SDS011;8021;48.022;11.812;2023-12-04T12:52:44;0.60;;;0.60;;
15841;SDS011;8021;48.022;11.812;2023-12-04T12:55:12;0.73;;;0.73;;
15841;SDS011;8021;48.022;11.812;2023-12-04T12:57:49;0.63;;;0.63;;
15841;SDS011;8021;48.022;11.812;2023-12-04T13:00:17;0.63;;;0.63;;
15841;SDS011;8021;48.022;11.812;2023-12-04T13:02:45;0.50;;;0.50;;
15841;SDS011;8021;48.022;11.812;2023-12-04T13:05:13;0.60;;;0.60;;
15841;SDS011;8021;48.022;11.812;2023-12-04T13:07:45;0.70;;;0.70;;
15841;SDS011;8021;48.022;11.812;2023-12-04T13:10:12;0.70;;;0.70;;
15841;SDS011;8021;48.022;11.812;2023-12-04T13:12:40;0.60;;;0.60;;
15841;SDS011;8021;48.022;11.812;2023-12-04T13:15:08;0.70;;;0.70;;
15841;SDS011;8021;48.022;11.812;2023-12-04T13:17:36;0.57;;;0.57;;
15841;SDS011;8021;48.022;11.812;2023-12-04T13:20:04;0.57;;;0.57;;
15841;SDS011;8021;48.022;11.812;2023-12-04T13:22:35;0.67;;;0.67;;
15841;SDS011;8021;48.022;11.812;2023-12-04T13:25:04;0.50;;;0.50;;
15841;SDS011;8021;48.022;11.812;2023-12-04T13:27:33;0.77;;;0.77;;
15841;SDS011;8021;48.022;11.812;2023-12-04T13:30:01;0.70;;;0.70;;
15841;SDS011;8021;48.022;11.812;2023-12-04T13:32:28;0.63;;;0.63;;
15841;SDS011;8021;48.022;11.812;2023-12-04T13:34:56;0.63;;;0.63;;
15841;SDS011;8021;48.022;11.812;2023-12-04T13:37:23;0.60;;;0.60;;
15841;SDS011;8021;48.022;11.812;2023-12-04T13:39:53;0.70;;;0.70;;
15841;SDS011;8021;48.022;11.812;2023-12-04T13:42:25;0.60;;;0.60;;
15841;SDS011;8021;48.022;11.812;2023-12-04T13:45:10;0.80;;;0.80;;
15841;SDS011;8021;48.022;11.812;2023-12-04T13:47:38;0.60;;;0.60;;
15841;SDS011;8021;48.022;11.812;2023-12-04T13:50:06;0.70;;;0.70;;
15841;SDS011;8021;48.022;11.812;2023-12-04T13:52:35;0.60;;;0.60;;
15841;SDS011;8021;48.022;11.812;2023-12-04T13:55:08;1.00;;;1.00;;
15841;SDS011;8021;48.022;11.812;2023-12-04T13:57:43;0.80;;;0.80;;
15841;SDS011;8021;48.022;11.812;2023-12-04T14:00:29;0.90;;;0.90;;
15841;SDS011;8021;48.022;11.812;2023-12-04T14:02:56;0.90;;;0.90;;
15841;SDS011;8021;48.022;11.812;2023-12-04T14:05:31;0.90;;;0.90;;
15841;SDS011;8021;48.022;11.812;2023-12-04T14:08:00;1.00;;;1.00;;
15841;SDS011;8021;48.022;11.812;2023-12-04T14:10:51;0.80;;;0.80;;
15841;SDS011;8021;48.022;11.812;2023-12-04T14:13:20;0.63;;;0.63;;
15841;SDS011;8021;48.022;11.812;2023-12-04T14:15:48;0.80;;;0.80;;
15841;SDS011;8021;48.022;11.812;2023-12-04T14:18:15;0.90;;;0.90;;
15841;SDS011;8021;48.022;11.812;2023-12-04T14:20:43;0.70;;;0.70;;
15841;SDS011;8021;48.022;11.812;2023-12-04T14:23:11;0.63;;;0.63;;
15841;SDS011;8021;48.022;11.812;2023-12-04T14:25:38;0.97;;;0.97;;
15841;SDS011;8021;48.022;11.812;2023-12-04T14:28:06;0.90;;;0.90;;
15841;SDS011;8021;48.022;11.812;2023-12-04T14:30:35;0.90;;;0.90;;
15841;SDS011;8021;48.022;11.812;2023-12-04T14:33:03;0.70;;;0.70;;
15841;SDS011;8021;48.022;11.812;2023-12-04T14:35:30;0.80;;;0.80;;
15841;SDS011;8021;48.022;11.812;2023-12-04T14:37:58;0.80;;;0.80;;
15841;SDS011;8021;48.022;11.812;2023-12-04T14:40:25;0.80;;;0.80;;
15841;SDS011;8021;48.022;11.812;2023-12-04T14:43:17;0.80;;;0.80;;
15841;SDS011;8021;48.022;11.812;2023-12-04T14:45:46;0.80;;;0.80;;
15841;SDS011;8021;48.022;11.812;2023-12-04T14:48:14;1.10;;;1.10;;
15841;SDS011;8021;48.022;11.812;2023-12-04T14:50:42;0.80;;;0.80;;
15841;SDS011;8021;48.022;11.812;2023-12-04T14:53:09;0.90;;;0.90;;
15841;SDS011;8021;48.022;11.812;2023-12-04T14:55:54;0.80;;;0.80;;
15841;SDS011;8021;48.022;11.812;2023-12-04T14:58:54;1.00;;;1.00;;
15841;SDS011;8021;48.022;11.812;2023-12-04T15:01:45;0.70;;;0.70;;